sensor_id;sensor_type;location;lat;lon;timestamp;pressure;altitude;pressure_sealevel;temperature;humidity
42847;BME280;28495;49.916;14.536;2023-02-21T00:02:56;96863.84;;;7.32;65.44
42847;BME280;28495;49.916;14.536;2023-02-21T00:08:37;96859.50;;;7.32;65.57
42847;BME280;28495;49.916;14.536;2023-02-21T00:14:16;96857.59;;;7.35;65.46
42847;BME280;28495;49.916;14.536;2023-02-21T00:19:56;96862.09;;;7.32;65.65
42847;BME280;28495;49.916;14.536;2023-02-21T00:25:37;96856.44;;;7.27;65.56
42847;BME280;28495;49.916;14.536;2023-02-21T00:31:18;96861.75;;;7.26;65.62
42847;BME280;28495;49.916;14.536;2023-02-21T00:36:57;96863.13;;;7.30;65.82
42847;BME280;28495;49.916;14.536;2023-02-21T00:42:36;96858.31;;;7.25;65.66
42847;BME280;28495;49.916;14.536;2023-02-21T00:48:20;96852.75;;;7.19;65.68
42847;BME280;28495;49.916;14.536;2023-02-21T00:54:00;96859.34;;;7.11;65.85
42847;BME280;28495;49.916;14.536;2023-02-21T00:59:39;96863.13;;;7.07;66.00
42847;BME280;28495;49.916;14.536;2023-02-21T01:05:18;96856.66;;;7.13;66.14
42847;BME280;28495;49.916;14.536;2023-02-21T01:10:58;96857.94;;;7.19;66.38
42847;BME280;28495;49.916;14.536;2023-02-21T01:16:37;96852.03;;;7.16;66.47
42847;BME280;28495;49.916;14.536;2023-02-21T01:22:28;96863.72;;;7.11;66.04
42847;BME280;28495;49.916;14.536;2023-02-21T01:28:08;96858.88;;;7.06;66.47
42847;BME280;28495;49.916;14.536;2023-02-21T01:33:47;96856.66;;;7.01;66.35
42847;BME280;28495;49.916;14.536;2023-02-21T01:39:26;96865.47;;;6.99;66.69
42847;BME280;28495;49.916;14.536;2023-02-21T01:51:02;96853.22;;;7.12;66.80
42847;BME280;28495;49.916;14.536;2023-02-21T01:56:43;96851.56;;;7.11;66.73
42847;BME280;28495;49.916;14.536;2023-02-21T02:02:40;96849.22;;;7.08;66.91
42847;BME280;28495;49.916;14.536;2023-02-21T02:08:25;96843.78;;;7.11;66.85
42847;BME280;28495;49.916;14.536;2023-02-21T02:32:10;96843.19;;;7.19;66.95
42847;BME280;28495;49.916;14.536;2023-02-21T02:37:30;96834.97;;;7.25;67.20
42847;BME280;28495;49.916;14.536;2023-02-21T02:43:01;96833.44;;;7.23;67.17
42847;BME280;28495;49.916;14.536;2023-02-21T02:48:36;96817.75;;;7.13;67.02
42847;BME280;28495;49.916;14.536;2023-02-21T02:53:58;96811.03;;;7.10;67.15
42847;BME280;28495;49.916;14.536;2023-02-21T02:59:22;96807.25;;;7.03;67.38
42847;BME280;28495;49.916;14.536;2023-02-21T03:05:09;96805.81;;;6.99;67.42
42847;BME280;28495;49.916;14.536;2023-02-21T03:10:51;96805.81;;;6.99;67.41
42847;BME280;28495;49.916;14.536;2023-02-21T03:16:37;96802.88;;;7.04;67.68
42847;BME280;28495;49.916;14.536;2023-02-21T03:22:04;96797.81;;;7.02;67.40
42847;BME280;28495;49.916;14.536;2023-02-21T03:27:28;96793.69;;;6.99;67.56
42847;BME280;28495;49.916;14.536;2023-02-21T03:32:54;96802.53;;;6.97;67.15
42847;BME280;28495;49.916;14.536;2023-02-21T03:38:17;96796.16;;;6.90;67.58
42847;BME280;28495;49.916;14.536;2023-02-21T03:43:38;96804.75;;;6.79;67.70
42847;BME280;28495;49.916;14.536;2023-02-21T03:48:59;96805.59;;;6.79;67.62
42847;BME280;28495;49.916;14.536;2023-02-21T03:54:22;96787.75;;;6.75;67.76
42847;BME280;28495;49.916;14.536;2023-02-21T03:59:46;96786.00;;;6.75;67.79
42847;BME280;28495;49.916;14.536;2023-02-21T04:05:08;96786.00;;;6.75;67.74
42847;BME280;28495;49.916;14.536;2023-02-21T04:10:29;96792.72;;;6.78;67.75
42847;BME280;28495;49.916;14.536;2023-02-21T04:15:57;96792.50;;;6.81;68.02
42847;BME280;28495;49.916;14.536;2023-02-21T04:21:18;96795.44;;;6.88;68.26
42847;BME280;28495;49.916;14.536;2023-02-21T04:26:41;96795.22;;;6.91;67.92
42847;BME280;28495;49.916;14.536;2023-02-21T04:32:02;96797.81;;;6.91;68.07
42847;BME280;28495;49.916;14.536;2023-02-21T04:37:25;96781.19;;;6.93;68.23
42847;BME280;28495;49.916;14.536;2023-02-21T04:42:46;96779.75;;;6.89;68.11
42847;BME280;28495;49.916;14.536;2023-02-21T04:48:07;96774.47;;;6.91;68.14
42847;BME280;28495;49.916;14.536;2023-02-21T04:53:28;96769.41;;;6.89;68.22
42847;BME280;28495;49.916;14.536;2023-02-21T04:58:48;96756.44;;;6.89;68.36
42847;BME280;28495;49.916;14.536;2023-02-21T05:04:10;96742.78;;;6.87;68.27
42847;BME280;28495;49.916;14.536;2023-02-21T05:09:30;96728.41;;;6.83;68.26
42847;BME280;28495;49.916;14.536;2023-02-21T05:14:52;96731.22;;;6.80;68.20
42847;BME280;28495;49.916;14.536;2023-02-21T05:20:13;96732.41;;;6.76;68.26
42847;BME280;28495;49.916;14.536;2023-02-21T05:25:33;96726.50;;;6.74;68.46
42847;BME280;28495;49.916;14.536;2023-02-21T05:30:54;96729.34;;;6.70;68.41
42847;BME280;28495;49.916;14.536;2023-02-21T05:36:17;96724.03;;;6.72;68.33
42847;BME280;28495;49.916;14.536;2023-02-21T05:41:45;96733.25;;;6.76;68.47
42847;BME280;28495;49.916;14.536;2023-02-21T05:47:06;96738.78;;;6.71;68.21
42847;BME280;28495;49.916;14.536;2023-02-21T05:52:27;96735.00;;;6.76;68.51
42847;BME280;28495;49.916;14.536;2023-02-21T05:57:48;96743.59;;;6.76;68.65
42847;BME280;28495;49.916;14.536;2023-02-21T06:03:09;96749.81;;;6.74;68.53
42847;BME280;28495;49.916;14.536;2023-02-21T06:08:30;96767.03;;;6.75;68.74
42847;BME280;28495;49.916;14.536;2023-02-21T06:13:52;96785.88;;;6.77;68.71
42847;BME280;28495;49.916;14.536;2023-02-21T06:19:14;96781.69;;;6.87;69.04
42847;BME280;28495;49.916;14.536;2023-02-21T06:24:36;96795.00;;;6.94;68.86
42847;BME280;28495;49.916;14.536;2023-02-21T06:29:57;96796.53;;;6.96;68.81
42847;BME280;28495;49.916;14.536;2023-02-21T06:35:19;96807.13;;;7.05;68.92
42847;BME280;28495;49.916;14.536;2023-02-21T06:40:39;96808.91;;;7.04;68.67
42847;BME280;28495;49.916;14.536;2023-02-21T06:46:00;96800.06;;;7.07;68.74
42847;BME280;28495;49.916;14.536;2023-02-21T06:51:21;96798.75;;;7.12;68.65
42847;BME280;28495;49.916;14.536;2023-02-21T06:56:48;96812.34;;;7.16;68.59
42847;BME280;28495;49.916;14.536;2023-02-21T07:02:18;96808.66;;;7.19;68.59
42847;BME280;28495;49.916;14.536;2023-02-21T07:07:55;96819.63;;;7.33;68.85
42847;BME280;28495;49.916;14.536;2023-02-21T07:13:16;96826.69;;;7.43;69.06
42847;BME280;28495;49.916;14.536;2023-02-21T07:18:37;96828.94;;;7.47;68.68
42847;BME280;28495;49.916;14.536;2023-02-21T07:23:58;96837.78;;;7.45;68.53
42847;BME280;28495;49.916;14.536;2023-02-21T07:29:18;96834.47;;;7.54;68.69
42847;BME280;28495;49.916;14.536;2023-02-21T07:34:39;96841.09;;;7.58;68.57
42847;BME280;28495;49.916;14.536;2023-02-21T07:40:00;96828.69;;;7.62;68.55
42847;BME280;28495;49.916;14.536;2023-02-21T07:45:20;96820.78;;;7.75;68.91
42847;BME280;28495;49.916;14.536;2023-02-21T07:50:42;96823.66;;;7.93;68.61
42847;BME280;28495;49.916;14.536;2023-02-21T07:56:04;96820.22;;;8.04;68.59
42847;BME280;28495;49.916;14.536;2023-02-21T08:01:25;96838.59;;;8.23;68.76
42847;BME280;28495;49.916;14.536;2023-02-21T08:06:47;96859.19;;;8.36;68.25
42847;BME280;28495;49.916;14.536;2023-02-21T08:12:08;96851.53;;;8.35;68.22
42847;BME280;28495;49.916;14.536;2023-02-21T08:17:29;96873.72;;;8.39;68.41
42847;BME280;28495;49.916;14.536;2023-02-21T08:22:50;96877.94;;;8.40;67.99
42847;BME280;28495;49.916;14.536;2023-02-21T08:28:11;96884.22;;;8.37;68.38
42847;BME280;28495;49.916;14.536;2023-02-21T08:33:33;96892.72;;;8.39;68.13
42847;BME280;28495;49.916;14.536;2023-02-21T08:38:53;96892.59;;;8.41;68.28
42847;BME280;28495;49.916;14.536;2023-02-21T08:44:15;96891.31;;;8.35;68.35
42847;BME280;28495;49.916;14.536;2023-02-21T08:49:36;96903.34;;;8.36;68.11
42847;BME280;28495;49.916;14.536;2023-02-21T08:55:02;96891.78;;;8.41;68.11
42847;BME280;28495;49.916;14.536;2023-02-21T09:00:24;96899.19;;;8.45;68.06
42847;BME280;28495;49.916;14.536;2023-02-21T09:05:47;96895.66;;;8.46;68.42
42847;BME280;28495;49.916;14.536;2023-02-21T09:11:08;96896.84;;;8.53;68.01
42847;BME280;28495;49.916;14.536;2023-02-21T09:16:29;96893.75;;;8.60;68.06
42847;BME280;28495;49.916;14.536;2023-02-21T09:21:49;96902.00;;;8.65;68.00
42847;BME280;28495;49.916;14.536;2023-02-21T09:27:15;96884.94;;;8.72;68.22
42847;BME280;28495;49.916;14.536;2023-02-21T09:32:38;96886.34;;;8.97;68.36
42847;BME280;28495;49.916;14.536;2023-02-21T09:37:59;96880.16;;;9.20;68.29
42847;BME280;28495;49.916;14.536;2023-02-21T09:43:31;96890.69;;;9.39;68.04
42847;BME280;28495;49.916;14.536;2023-02-21T09:48:53;96895.81;;;9.51;67.76
42847;BME280;28495;49.916;14.536;2023-02-21T09:54:29;96903.66;;;9.60;68.02
42847;BME280;28495;49.916;14.536;2023-02-21T09:59:52;96909.13;;;9.57;67.72
42847;BME280;28495;49.916;14.536;2023-02-21T10:05:29;96902.84;;;9.60;67.94
42847;BME280;28495;49.916;14.536;2023-02-21T10:11:01;96906.78;;;9.95;68.24
42847;BME280;28495;49.916;14.536;2023-02-21T10:22:25;96902.72;;;9.61;67.59
42847;BME280;28495;49.916;14.536;2023-02-21T10:27:49;96894.50;;;9.66;67.34
42847;BME280;28495;49.916;14.536;2023-02-21T10:33:10;96903.69;;;9.70;67.55
42847;BME280;28495;49.916;14.536;2023-02-21T10:38:31;96905.09;;;9.74;67.30
42847;BME280;28495;49.916;14.536;2023-02-21T10:43:59;96911.38;;;9.72;67.32
42847;BME280;28495;49.916;14.536;2023-02-21T10:49:25;96914.16;;;9.80;67.31
42847;BME280;28495;49.916;14.536;2023-02-21T10:55:05;96915.66;;;9.83;67.32
42847;BME280;28495;49.916;14.536;2023-02-21T11:00:43;96913.88;;;9.83;67.08
42847;BME280;28495;49.916;14.536;2023-02-21T11:06:07;96913.03;;;9.73;66.80
42847;BME280;28495;49.916;14.536;2023-02-21T11:11:35;96919.84;;;9.64;67.30
42847;BME280;28495;49.916;14.536;2023-02-21T11:17:21;96916.44;;;9.64;67.00
42847;BME280;28495;49.916;14.536;2023-02-21T11:22:45;96904.66;;;9.69;67.23
42847;BME280;28495;49.916;14.536;2023-02-21T11:33:30;96883.81;;;9.69;67.05
42847;BME280;28495;49.916;14.536;2023-02-21T11:44:40;96885.03;;;9.65;67.14
42847;BME280;28495;49.916;14.536;2023-02-21T11:50:12;96879.97;;;9.64;67.37
42847;BME280;28495;49.916;14.536;2023-02-21T11:55:35;96891.09;;;9.66;67.14
42847;BME280;28495;49.916;14.536;2023-02-21T12:01:09;96888.47;;;9.66;67.24
42847;BME280;28495;49.916;14.536;2023-02-21T12:17:50;96882.22;;;9.47;67.29
42847;BME280;28495;49.916;14.536;2023-02-21T12:40:27;96882.31;;;9.36;67.10
42847;BME280;28495;49.916;14.536;2023-02-21T12:47:25;96880.78;;;9.33;67.34
42847;BME280;28495;49.916;14.536;2023-02-21T12:52:19;96867.78;;;9.33;67.00
42847;BME280;28495;49.916;14.536;2023-02-21T12:57:55;96872.16;;;9.33;67.41
42847;BME280;28495;49.916;14.536;2023-02-21T13:08:52;96858.63;;;9.39;67.25
42847;BME280;28495;49.916;14.536;2023-02-21T13:14:17;96853.16;;;9.42;67.28
42847;BME280;28495;49.916;14.536;2023-02-21T13:19:58;96855.16;;;9.59;67.67
42847;BME280;28495;49.916;14.536;2023-02-21T13:25:35;96846.38;;;9.60;67.31
42847;BME280;28495;49.916;14.536;2023-02-21T13:31:05;96849.53;;;9.64;67.31
42847;BME280;28495;49.916;14.536;2023-02-21T13:42:17;96852.28;;;9.63;67.27
42847;BME280;28495;49.916;14.536;2023-02-21T13:53:26;96845.41;;;9.61;67.39
42847;BME280;28495;49.916;14.536;2023-02-21T13:58:51;96844.47;;;9.63;67.16
42847;BME280;28495;49.916;14.536;2023-02-21T14:10:24;96832.69;;;9.68;67.17
42847;BME280;28495;49.916;14.536;2023-02-21T14:15:49;96831.44;;;9.63;66.87
42847;BME280;28495;49.916;14.536;2023-02-21T14:26:55;96828.78;;;9.94;68.42
42847;BME280;28495;49.916;14.536;2023-02-21T14:32:32;96816.53;;;9.84;66.66
42847;BME280;28495;49.916;14.536;2023-02-21T14:43:44;96829.66;;;9.63;67.06
42847;BME280;28495;49.916;14.536;2023-02-21T15:06:28;96830.72;;;9.51;67.03
42847;BME280;28495;49.916;14.536;2023-02-21T15:11:51;96830.59;;;9.52;67.36
42847;BME280;28495;49.916;14.536;2023-02-21T15:17:17;96829.50;;;9.55;67.29
42847;BME280;28495;49.916;14.536;2023-02-21T15:22:39;96825.53;;;9.60;67.49
42847;BME280;28495;49.916;14.536;2023-02-21T15:28:02;96826.66;;;9.58;66.87
42847;BME280;28495;49.916;14.536;2023-02-21T15:33:24;96827.59;;;9.57;67.54
42847;BME280;28495;49.916;14.536;2023-02-21T16:00:44;96824.19;;;9.66;67.13
42847;BME280;28495;49.916;14.536;2023-02-21T16:06:22;96826.34;;;9.61;67.55
42847;BME280;28495;49.916;14.536;2023-02-21T16:17:40;96817.44;;;9.54;67.79
42847;BME280;28495;49.916;14.536;2023-02-21T16:23:33;96827.69;;;9.45;67.35
42847;BME280;28495;49.916;14.536;2023-02-21T16:28:55;96828.13;;;9.51;67.82
42847;BME280;28495;49.916;14.536;2023-02-21T16:34:18;96837.34;;;9.65;68.00
42847;BME280;28495;49.916;14.536;2023-02-21T16:39:40;96839.69;;;9.68;67.65
42847;BME280;28495;49.916;14.536;2023-02-21T16:45:01;96840.91;;;9.64;67.43
42847;BME280;28495;49.916;14.536;2023-02-21T16:50:39;96840.47;;;9.58;67.14
42847;BME280;28495;49.916;14.536;2023-02-21T16:56:01;96835.47;;;9.45;67.50
42847;BME280;28495;49.916;14.536;2023-02-21T17:01:28;96850.13;;;9.37;67.52
42847;BME280;28495;49.916;14.536;2023-02-21T17:06:53;96851.59;;;9.29;67.39
42847;BME280;28495;49.916;14.536;2023-02-21T17:12:15;96852.09;;;9.23;67.75
42847;BME280;28495;49.916;14.536;2023-02-21T17:17:37;96852.25;;;9.22;67.64
42847;BME280;28495;49.916;14.536;2023-02-21T17:22:58;96857.00;;;9.17;67.55
42847;BME280;28495;49.916;14.536;2023-02-21T17:28:20;96861.66;;;9.13;67.43
42847;BME280;28495;49.916;14.536;2023-02-21T17:33:41;96855.56;;;9.24;68.17
42847;BME280;28495;49.916;14.536;2023-02-21T17:39:02;96861.19;;;9.29;67.62
42847;BME280;28495;49.916;14.536;2023-02-21T17:44:23;96862.09;;;9.18;67.65
42847;BME280;28495;49.916;14.536;2023-02-21T17:49:49;96867.41;;;9.17;67.76
42847;BME280;28495;49.916;14.536;2023-02-21T17:55:17;96867.56;;;9.15;67.87
42847;BME280;28495;49.916;14.536;2023-02-21T18:00:38;96867.56;;;9.15;67.39
42847;BME280;28495;49.916;14.536;2023-02-21T18:05:59;96859.09;;;9.23;67.89
42847;BME280;28495;49.916;14.536;2023-02-21T18:11:21;96857.19;;;9.25;67.96
42847;BME280;28495;49.916;14.536;2023-02-21T18:16:43;96858.78;;;9.16;67.33
42847;BME280;28495;49.916;14.536;2023-02-21T18:22:04;96861.53;;;9.14;67.65
42847;BME280;28495;49.916;14.536;2023-02-21T18:27:25;96860.94;;;9.11;67.41
42847;BME280;28495;49.916;14.536;2023-02-21T18:32:46;96863.38;;;9.03;67.17
42847;BME280;28495;49.916;14.536;2023-02-21T18:38:07;96862.31;;;8.84;66.96
42847;BME280;28495;49.916;14.536;2023-02-21T18:43:29;96862.94;;;8.76;67.33
42847;BME280;28495;49.916;14.536;2023-02-21T18:48:50;96863.31;;;8.72;67.44
42847;BME280;28495;49.916;14.536;2023-02-21T18:54:11;96863.88;;;8.75;67.44
42847;BME280;28495;49.916;14.536;2023-02-21T18:59:33;96869.78;;;8.77;67.79
42847;BME280;28495;49.916;14.536;2023-02-21T19:04:54;96872.88;;;8.71;67.05
42847;BME280;28495;49.916;14.536;2023-02-21T19:10:17;96883.81;;;8.65;67.43
42847;BME280;28495;49.916;14.536;2023-02-21T19:15:38;96875.69;;;8.58;67.06
42847;BME280;28495;49.916;14.536;2023-02-21T19:20:59;96884.91;;;8.51;67.59
42847;BME280;28495;49.916;14.536;2023-02-21T19:26:19;96873.81;;;8.49;67.25
42847;BME280;28495;49.916;14.536;2023-02-21T19:31:41;96875.81;;;8.45;66.99
42847;BME280;28495;49.916;14.536;2023-02-21T19:37:02;96884.94;;;8.39;67.00
42847;BME280;28495;49.916;14.536;2023-02-21T19:42:22;96886.81;;;8.37;67.31
42847;BME280;28495;49.916;14.536;2023-02-21T19:47:43;96892.06;;;8.26;67.40
42847;BME280;28495;49.916;14.536;2023-02-21T19:53:05;96891.13;;;8.27;67.19
42847;BME280;28495;49.916;14.536;2023-02-21T19:58:26;96893.13;;;8.23;67.54
42847;BME280;28495;49.916;14.536;2023-02-21T20:03:48;96903.88;;;8.19;67.07
42847;BME280;28495;49.916;14.536;2023-02-21T20:09:10;96900.94;;;8.12;67.07
42847;BME280;28495;49.916;14.536;2023-02-21T20:14:31;96905.09;;;8.03;67.26
42847;BME280;28495;49.916;14.536;2023-02-21T20:19:52;96903.19;;;8.05;67.10
42847;BME280;28495;49.916;14.536;2023-02-21T20:25:14;96894.34;;;7.97;66.99
42847;BME280;28495;49.916;14.536;2023-02-21T20:30:35;96898.75;;;7.96;67.12
42847;BME280;28495;49.916;14.536;2023-02-21T20:35:55;96906.75;;;7.93;66.96
42847;BME280;28495;49.916;14.536;2023-02-21T20:41:16;96905.94;;;7.92;67.25
42847;BME280;28495;49.916;14.536;2023-02-21T20:46:38;96910.44;;;7.90;67.25
42847;BME280;28495;49.916;14.536;2023-02-21T20:51:58;96914.41;;;7.94;67.54
42847;BME280;28495;49.916;14.536;2023-02-21T20:57:19;96916.78;;;7.98;67.40
42847;BME280;28495;49.916;14.536;2023-02-21T21:02:41;96914.41;;;7.94;67.59
42847;BME280;28495;49.916;14.536;2023-02-21T21:08:02;96918.09;;;7.92;67.53
42847;BME280;28495;49.916;14.536;2023-02-21T21:13:23;96925.06;;;8.03;67.61
42847;BME280;28495;49.916;14.536;2023-02-21T21:18:44;96923.16;;;8.05;67.86
42847;BME280;28495;49.916;14.536;2023-02-21T21:24:08;96926.47;;;8.07;67.50
42847;BME280;28495;49.916;14.536;2023-02-21T21:29:31;96921.28;;;8.07;67.29
42847;BME280;28495;49.916;14.536;2023-02-21T21:34:56;96927.78;;;8.01;67.20
42847;BME280;28495;49.916;14.536;2023-02-21T21:40:20;96932.59;;;7.94;67.48
42847;BME280;28495;49.916;14.536;2023-02-21T21:45:43;96932.59;;;7.94;67.64
42847;BME280;28495;49.916;14.536;2023-02-21T21:51:04;96926.00;;;7.90;67.72
42847;BME280;28495;49.916;14.536;2023-02-21T21:56:25;96932.25;;;7.88;67.54
42847;BME280;28495;49.916;14.536;2023-02-21T22:01:47;96925.91;;;7.81;67.45
42847;BME280;28495;49.916;14.536;2023-02-21T22:07:09;96921.28;;;7.84;67.85
42847;BME280;28495;49.916;14.536;2023-02-21T22:12:31;96917.28;;;7.80;67.86
42847;BME280;28495;49.916;14.536;2023-02-21T22:17:52;96914.91;;;8.00;68.08
42847;BME280;28495;49.916;14.536;2023-02-21T22:23:16;96922.56;;;8.13;67.97
42847;BME280;28495;49.916;14.536;2023-02-21T22:28:40;96914.78;;;8.13;67.96
42847;BME280;28495;49.916;14.536;2023-02-21T22:34:01;96921.63;;;8.02;67.49
42847;BME280;28495;49.916;14.536;2023-02-21T22:39:23;96910.28;;;8.03;67.67
42847;BME280;28495;49.916;14.536;2023-02-21T22:44:47;96907.69;;;8.03;67.82
42847;BME280;28495;49.916;14.536;2023-02-21T22:50:08;96915.94;;;8.08;67.84
42847;BME280;28495;49.916;14.536;2023-02-21T22:55:36;96915.47;;;8.15;68.40
42847;BME280;28495;49.916;14.536;2023-02-21T23:00:57;96924.22;;;8.14;68.24
42847;BME280;28495;49.916;14.536;2023-02-21T23:06:20;96921.47;;;8.15;68.04
42847;BME280;28495;49.916;14.536;2023-02-21T23:11:45;96917.38;;;8.13;68.21
42847;BME280;28495;49.916;14.536;2023-02-21T23:17:06;96920.50;;;8.28;68.10
42847;BME280;28495;49.916;14.536;2023-02-21T23:22:27;96914.16;;;8.20;67.89
42847;BME280;28495;49.916;14.536;2023-02-21T23:27:53;96910.63;;;8.10;67.96
42847;BME280;28495;49.916;14.536;2023-02-21T23:33:21;96907.06;;;8.11;67.87
42847;BME280;28495;49.916;14.536;2023-02-21T23:38:42;96911.22;;;8.14;68.11
42847;BME280;28495;49.916;14.536;2023-02-21T23:44:04;96914.53;;;8.16;68.30
42847;BME280;28495;49.916;14.536;2023-02-21T23:49:25;96914.06;;;8.11;67.77
42847;BME280;28495;49.916;14.536;2023-02-21T23:54:46;96913.69;;;8.15;68.21
